PWSweather.com
Personal Weather Stations
Station Observations
TXALLEN104
Watters Crossing, Allen, TX 75013

Watters CrossingAllen, TX 75013

Lat: 33.096, Lon: -96.697

Elevation: 672

Station Type: Davis Vantage Pro2 Plus

http://www.allenweather.com

High Low Average
Temperature 101.6°F38.7°C 71.4°F21.9°C 86.5°F30.3°C
Dew Point 75.4°F24.1°C 66.9°F19.4°C 71.2°F21.8°C
Winds 8.0 mph 12.9 kmh Calm Calm 1.0 mph WSW1.6 kmh WSW
Wind Gusts 21.0 mph33.8 kmh -- 4.0 mph6.4 kmh
Humidity 92% 40% 63%
Pressure 29.96 in1014.6 mb 29.79 in1008.8 mb -
Precipitation 0.58 in14.7 mm - -
Hour Temp Dew Point Humidity Winds Wind Gusts Pressure Precip Precip Rate Daily Precip Total
12:00 AM 85.4°F29.7°C 69.9°F21.1°C 60% Calm Calm -- 29.93 in1013.5 mb 0.00 in0.0 mm 0.00 in0.0 mm 0.00 in0.0 mm
12:05 AM 85.5°F29.7°C 69.5°F20.8°C 59% Calm Calm -- 29.93 in1013.5 mb 0.00 in0.0 mm 0.00 in0.0 mm 0.00 in0.0 mm
12:10 AM 85.6°F29.8°C 69.6°F20.9°C 59% Calm Calm -- 29.93 in1013.5 mb 0.00 in0.0 mm 0.00 in0.0 mm 0.00 in0.0 mm
12:15 AM 85.5°F29.7°C 70.0°F21.1°C 60% Calm Calm -- 29.93 in1013.5 mb 0.00 in0.0 mm 0.00 in0.0 mm 0.00 in0.0 mm
12:20 AM 85.3°F29.6°C 69.8°F21.0°C 60% Calm Calm -- 29.93 in1013.5 mb 0.00 in0.0 mm 0.00 in0.0 mm 0.00 in0.0 mm
12:25 AM 85.3°F29.6°C 69.3°F20.7°C 59% Calm Calm -- 29.93 in1013.5 mb 0.00 in0.0 mm 0.00 in0.0 mm 0.00 in0.0 mm
12:30 AM 85.2°F29.6°C 69.7°F20.9°C 60% Calm Calm -- 29.92 in1013.2 mb 0.00 in0.0 mm 0.00 in0.0 mm 0.00 in0.0 mm
12:35 AM 85.3°F29.6°C 69.3°F20.7°C 59% Calm Calm -- 29.92 in1013.2 mb 0.00 in0.0 mm 0.00 in0.0 mm 0.00 in0.0 mm
12:40 AM 85.7°F29.8°C 68.7°F20.4°C 57% Calm Calm -- 29.92 in1013.2 mb 0.00 in0.0 mm 0.00 in0.0 mm 0.00 in0.0 mm
12:45 AM 85.9°F29.9°C 68.9°F20.5°C 57% Calm Calm -- 29.93 in1013.5 mb 0.00 in0.0 mm 0.00 in0.0 mm 0.00 in0.0 mm
12:50 AM 86.0°F30.0°C 68.4°F20.2°C 56% Calm Calm -- 29.93 in1013.5 mb 0.00 in0.0 mm 0.00 in0.0 mm 0.00 in0.0 mm
12:55 AM 86.3°F30.2°C 68.2°F20.1°C 55% Calm Calm -- 29.93 in1013.5 mb 0.00 in0.0 mm 0.00 in0.0 mm 0.00 in0.0 mm
01:00 AM 86.8°F30.4°C 68.1°F20.1°C 54% 3.0 mph S4.8 kmh S 8.0 mph12.9 kmh 29.92 in1013.2 mb 0.00 in0.0 mm 0.00 in0.0 mm 0.00 in0.0 mm
01:05 AM 87.0°F30.6°C 68.3°F20.2°C 54% 2.0 mph S3.2 kmh S 8.0 mph12.9 kmh 29.92 in1013.2 mb 0.00 in0.0 mm 0.00 in0.0 mm 0.00 in0.0 mm
01:10 AM 86.9°F30.5°C 68.8°F20.4°C 55% 2.0 mph SSW3.2 kmh SSW 7.0 mph11.3 kmh 29.93 in1013.5 mb 0.00 in0.0 mm 0.00 in0.0 mm 0.00 in0.0 mm
01:15 AM 86.7°F30.4°C 68.6°F20.3°C 55% 1.0 mph S1.6 kmh S 6.0 mph9.7 kmh 29.92 in1013.2 mb 0.00 in0.0 mm 0.00 in0.0 mm 0.00 in0.0 mm
01:20 AM 86.3°F30.2°C 68.7°F20.4°C 56% 1.0 mph SSW1.6 kmh SSW 4.0 mph6.4 kmh 29.93 in1013.5 mb 0.00 in0.0 mm 0.00 in0.0 mm 0.00 in0.0 mm
01:25 AM 86.1°F30.1°C 68.5°F20.3°C 56% 2.0 mph SSW3.2 kmh SSW 6.0 mph9.7 kmh 29.93 in1013.5 mb 0.00 in0.0 mm 0.00 in0.0 mm 0.00 in0.0 mm
01:30 AM 86.0°F30.0°C 69.0°F20.6°C 57% 2.0 mph S3.2 kmh S 4.0 mph6.4 kmh 29.93 in1013.5 mb 0.00 in0.0 mm 0.00 in0.0 mm 0.00 in0.0 mm
01:35 AM 85.8°F29.9°C 68.8°F20.4°C 57% 1.0 mph SSW1.6 kmh SSW 6.0 mph9.7 kmh 29.93 in1013.5 mb 0.00 in0.0 mm 0.00 in0.0 mm 0.00 in0.0 mm
01:40 AM 85.4°F29.7°C 68.9°F20.5°C 58% Calm Calm 2.0 mph3.2 kmh 29.92 in1013.2 mb 0.00 in0.0 mm 0.00 in0.0 mm 0.00 in0.0 mm
01:45 AM 85.3°F29.6°C 68.8°F20.4°C 58% 1.0 mph SSW1.6 kmh SSW 6.0 mph9.7 kmh 29.92 in1013.2 mb 0.00 in0.0 mm 0.00 in0.0 mm 0.00 in0.0 mm
01:50 AM 85.1°F29.5°C 69.1°F20.6°C 59% 1.0 mph SSW1.6 kmh SSW 3.0 mph4.8 kmh 29.92 in1013.2 mb 0.00 in0.0 mm 0.00 in0.0 mm 0.00 in0.0 mm
01:55 AM 84.8°F29.3°C 68.9°F20.5°C 59% Calm Calm -- 29.92 in1013.2 mb 0.00 in0.0 mm 0.00 in0.0 mm 0.00 in0.0 mm
02:00 AM 84.6°F29.2°C 69.2°F20.7°C 60% Calm Calm 2.0 mph3.2 kmh 29.92 in1013.2 mb 0.00 in0.0 mm 0.00 in0.0 mm 0.00 in0.0 mm
02:05 AM 84.7°F29.3°C 69.2°F20.7°C 60% Calm Calm 3.0 mph4.8 kmh 29.92 in1013.2 mb 0.00 in0.0 mm 0.00 in0.0 mm 0.00 in0.0 mm
02:10 AM 84.8°F29.3°C 69.3°F20.7°C 60% Calm Calm -- 29.92 in1013.2 mb 0.00 in0.0 mm 0.00 in0.0 mm 0.00 in0.0 mm
02:15 AM 84.9°F29.4°C 69.4°F20.8°C 60% Calm Calm -- 29.92 in1013.2 mb 0.00 in0.0 mm 0.00 in0.0 mm 0.00 in0.0 mm
02:20 AM 84.9°F29.4°C 69.4°F20.8°C 60% Calm Calm -- 29.92 in1013.2 mb 0.00 in0.0 mm 0.00 in0.0 mm 0.00 in0.0 mm
02:25 AM 85.0°F29.4°C 69.5°F20.8°C 60% Calm Calm -- 29.92 in1013.2 mb 0.00 in0.0 mm 0.00 in0.0 mm 0.00 in0.0 mm
02:30 AM 84.9°F29.4°C 69.4°F20.8°C 60% Calm Calm -- 29.92 in1013.2 mb 0.00 in0.0 mm 0.00 in0.0 mm 0.00 in0.0 mm
02:35 AM 84.8°F29.3°C 69.8°F21.0°C 61% Calm Calm -- 29.92 in1013.2 mb 0.00 in0.0 mm 0.00 in0.0 mm 0.00 in0.0 mm
02:40 AM 84.7°F29.3°C 69.7°F20.9°C 61% Calm Calm -- 29.92 in1013.2 mb 0.00 in0.0 mm 0.00 in0.0 mm 0.00 in0.0 mm
02:45 AM 84.5°F29.2°C 70.0°F21.1°C 62% Calm Calm -- 29.93 in1013.5 mb 0.00 in0.0 mm 0.00 in0.0 mm 0.00 in0.0 mm
02:50 AM 84.3°F29.1°C 69.8°F21.0°C 62% Calm Calm -- 29.93 in1013.5 mb 0.00 in0.0 mm 0.00 in0.0 mm 0.00 in0.0 mm
02:55 AM 84.5°F29.2°C 70.0°F21.1°C 62% Calm Calm -- 29.93 in1013.5 mb 0.00 in0.0 mm 0.00 in0.0 mm 0.00 in0.0 mm
03:00 AM 84.2°F29.0°C 69.7°F20.9°C 62% Calm Calm -- 29.93 in1013.5 mb 0.00 in0.0 mm 0.00 in0.0 mm 0.00 in0.0 mm
03:05 AM 84.2°F29.0°C 69.7°F20.9°C 62% Calm Calm -- 29.93 in1013.5 mb 0.00 in0.0 mm 0.00 in0.0 mm 0.00 in0.0 mm
03:10 AM 84.1°F28.9°C 70.1°F21.2°C 63% Calm Calm -- 29.93 in1013.5 mb 0.00 in0.0 mm 0.00 in0.0 mm 0.00 in0.0 mm
03:15 AM 84.2°F29.0°C 70.2°F21.2°C 63% Calm Calm -- 29.93 in1013.5 mb 0.00 in0.0 mm 0.00 in0.0 mm 0.00 in0.0 mm
03:20 AM 83.9°F28.8°C 70.4°F21.3°C 64% Calm Calm -- 29.93 in1013.5 mb 0.00 in0.0 mm 0.00 in0.0 mm 0.00 in0.0 mm
03:25 AM 83.9°F28.8°C 70.4°F21.3°C 64% Calm Calm -- 29.93 in1013.5 mb 0.00 in0.0 mm 0.00 in0.0 mm 0.00 in0.0 mm
03:30 AM 83.8°F28.8°C 70.3°F21.3°C 64% Calm Calm -- 29.94 in1013.9 mb 0.00 in0.0 mm 0.00 in0.0 mm 0.00 in0.0 mm
03:35 AM 83.6°F28.7°C 70.1°F21.2°C 64% Calm Calm -- 29.94 in1013.9 mb 0.00 in0.0 mm 0.00 in0.0 mm 0.00 in0.0 mm
03:40 AM 83.6°F28.7°C 70.6°F21.4°C 65% Calm Calm -- 29.94 in1013.9 mb 0.00 in0.0 mm 0.00 in0.0 mm 0.00 in0.0 mm
03:45 AM 83.6°F28.7°C 70.6°F21.4°C 65% Calm Calm -- 29.93 in1013.5 mb 0.00 in0.0 mm 0.00 in0.0 mm 0.00 in0.0 mm
03:50 AM 83.5°F28.6°C 70.5°F21.4°C 65% Calm Calm -- 29.93 in1013.5 mb 0.00 in0.0 mm 0.00 in0.0 mm 0.00 in0.0 mm
03:55 AM 83.6°F28.7°C 70.6°F21.4°C 65% Calm Calm -- 29.93 in1013.5 mb 0.00 in0.0 mm 0.00 in0.0 mm 0.00 in0.0 mm
04:00 AM 83.8°F28.8°C 70.8°F21.6°C 65% Calm Calm -- 29.93 in1013.5 mb 0.00 in0.0 mm 0.00 in0.0 mm 0.00 in0.0 mm
04:05 AM 83.6°F28.7°C 70.6°F21.4°C 65% Calm Calm -- 29.93 in1013.5 mb 0.00 in0.0 mm 0.00 in0.0 mm 0.00 in0.0 mm
04:10 AM 83.7°F28.7°C 71.1°F21.7°C 66% Calm Calm -- 29.93 in1013.5 mb 0.00 in0.0 mm 0.00 in0.0 mm 0.00 in0.0 mm
04:15 AM 83.6°F28.7°C 71.0°F21.7°C 66% Calm Calm -- 29.93 in1013.5 mb 0.00 in0.0 mm 0.00 in0.0 mm 0.00 in0.0 mm
04:20 AM 83.7°F28.7°C 70.7°F21.5°C 65% Calm Calm -- 29.93 in1013.5 mb 0.00 in0.0 mm 0.00 in0.0 mm 0.00 in0.0 mm
04:25 AM 83.7°F28.7°C 71.1°F21.7°C 66% Calm Calm -- 29.93 in1013.5 mb 0.00 in0.0 mm 0.00 in0.0 mm 0.00 in0.0 mm
04:30 AM 83.6°F28.7°C 71.0°F21.7°C 66% Calm Calm -- 29.93 in1013.5 mb 0.00 in0.0 mm 0.00 in0.0 mm 0.00 in0.0 mm
04:35 AM 83.4°F28.6°C 70.8°F21.6°C 66% Calm Calm -- 29.93 in1013.5 mb 0.00 in0.0 mm 0.00 in0.0 mm 0.00 in0.0 mm
04:40 AM 83.5°F28.6°C 70.9°F21.6°C 66% 1.0 mph SSW1.6 kmh SSW 4.0 mph6.4 kmh 29.93 in1013.5 mb 0.00 in0.0 mm 0.00 in0.0 mm 0.00 in0.0 mm
04:45 AM 83.4°F28.6°C 71.3°F21.8°C 67% 1.0 mph SSW1.6 kmh SSW 3.0 mph4.8 kmh 29.93 in1013.5 mb 0.00 in0.0 mm 0.00 in0.0 mm 0.00 in0.0 mm
04:50 AM 83.2°F28.4°C 71.1°F21.7°C 67% 1.0 mph W1.6 kmh W 6.0 mph9.7 kmh 29.93 in1013.5 mb 0.00 in0.0 mm 0.00 in0.0 mm 0.00 in0.0 mm
04:55 AM 83.2°F28.4°C 71.1°F21.7°C 67% Calm Calm -- 29.93 in1013.5 mb 0.00 in0.0 mm 0.00 in0.0 mm 0.00 in0.0 mm
05:00 AM 83.1°F28.4°C 71.0°F21.7°C 67% Calm Calm -- 29.93 in1013.5 mb 0.00 in0.0 mm 0.00 in0.0 mm 0.00 in0.0 mm
05:05 AM 83.0°F28.3°C 70.9°F21.6°C 67% Calm Calm -- 29.93 in1013.5 mb 0.00 in0.0 mm 0.00 in0.0 mm 0.00 in0.0 mm
05:10 AM 83.0°F28.3°C 70.9°F21.6°C 67% Calm Calm 1.0 mph1.6 kmh 29.93 in1013.5 mb 0.00 in0.0 mm 0.00 in0.0 mm 0.00 in0.0 mm
05:15 AM 82.8°F28.2°C 71.1°F21.7°C 68% Calm Calm -- 29.93 in1013.5 mb 0.00 in0.0 mm 0.00 in0.0 mm 0.00 in0.0 mm
05:20 AM 82.7°F28.2°C 71.0°F21.7°C 68% Calm Calm -- 29.93 in1013.5 mb 0.00 in0.0 mm 0.00 in0.0 mm 0.00 in0.0 mm
05:25 AM 82.6°F28.1°C 70.9°F21.6°C 68% Calm Calm -- 29.93 in1013.5 mb 0.00 in0.0 mm 0.00 in0.0 mm 0.00 in0.0 mm
05:30 AM 82.6°F28.1°C 70.9°F21.6°C 68% Calm Calm -- 29.94 in1013.9 mb 0.00 in0.0 mm 0.00 in0.0 mm 0.00 in0.0 mm
05:35 AM 82.5°F28.1°C 71.3°F21.8°C 69% Calm Calm -- 29.94 in1013.9 mb 0.00 in0.0 mm 0.00 in0.0 mm 0.00 in0.0 mm
05:40 AM 82.4°F28.0°C 71.2°F21.8°C 69% Calm Calm -- 29.94 in1013.9 mb 0.00 in0.0 mm 0.00 in0.0 mm 0.00 in0.0 mm
05:45 AM 82.4°F28.0°C 71.2°F21.8°C 69% Calm Calm -- 29.94 in1013.9 mb 0.00 in0.0 mm 0.00 in0.0 mm 0.00 in0.0 mm
05:50 AM 82.2°F27.9°C 71.0°F21.7°C 69% Calm Calm -- 29.94 in1013.9 mb 0.00 in0.0 mm 0.00 in0.0 mm 0.00 in0.0 mm
05:55 AM 82.0°F27.8°C 71.2°F21.8°C 70% Calm Calm -- 29.94 in1013.9 mb 0.00 in0.0 mm 0.00 in0.0 mm 0.00 in0.0 mm
06:00 AM 82.0°F27.8°C 71.2°F21.8°C 70% Calm Calm -- 29.94 in1013.9 mb 0.00 in0.0 mm 0.00 in0.0 mm 0.00 in0.0 mm
06:05 AM 82.1°F27.8°C 71.3°F21.8°C 70% Calm Calm -- 29.95 in1014.2 mb 0.00 in0.0 mm 0.00 in0.0 mm 0.00 in0.0 mm
06:10 AM 82.1°F27.8°C 70.9°F21.6°C 69% Calm Calm -- 29.95 in1014.2 mb 0.00 in0.0 mm 0.00 in0.0 mm 0.00 in0.0 mm
06:15 AM 82.1°F27.8°C 71.3°F21.8°C 70% Calm Calm -- 29.95 in1014.2 mb 0.00 in0.0 mm 0.00 in0.0 mm 0.00 in0.0 mm
06:20 AM 82.2°F27.9°C 71.0°F21.7°C 69% Calm Calm -- 29.95 in1014.2 mb 0.00 in0.0 mm 0.00 in0.0 mm 0.00 in0.0 mm
06:25 AM 82.3°F27.9°C 71.1°F21.7°C 69% Calm Calm -- 29.96 in1014.6 mb 0.00 in0.0 mm 0.00 in0.0 mm 0.00 in0.0 mm
06:30 AM 82.1°F27.8°C 71.3°F21.8°C 70% Calm Calm -- 29.96 in1014.6 mb 0.00 in0.0 mm 0.00 in0.0 mm 0.00 in0.0 mm
06:35 AM 82.1°F27.8°C 71.3°F21.8°C 70% Calm Calm -- 29.96 in1014.6 mb 0.00 in0.0 mm 0.00 in0.0 mm 0.00 in0.0 mm
06:40 AM 82.1°F27.8°C 71.3°F21.8°C 70% Calm Calm -- 29.96 in1014.6 mb 0.00 in0.0 mm 0.00 in0.0 mm 0.00 in0.0 mm
06:45 AM 82.2°F27.9°C 71.4°F21.9°C 70% Calm Calm -- 29.96 in1014.6 mb 0.00 in0.0 mm 0.00 in0.0 mm 0.00 in0.0 mm
06:50 AM 82.1°F27.8°C 71.3°F21.8°C 70% Calm Calm 1.0 mph1.6 kmh 29.96 in1014.6 mb 0.00 in0.0 mm 0.00 in0.0 mm 0.00 in0.0 mm
06:55 AM 82.2°F27.9°C 71.4°F21.9°C 70% Calm Calm -- 29.95 in1014.2 mb 0.00 in0.0 mm 0.00 in0.0 mm 0.00 in0.0 mm
07:00 AM 82.2°F27.9°C 71.4°F21.9°C 70% Calm Calm -- 29.96 in1014.6 mb 0.00 in0.0 mm 0.00 in0.0 mm 0.00 in0.0 mm
07:05 AM 82.3°F27.9°C 71.5°F21.9°C 70% Calm Calm -- 29.95 in1014.2 mb 0.00 in0.0 mm 0.00 in0.0 mm 0.00 in0.0 mm
07:10 AM 82.5°F28.1°C 71.7°F22.1°C 70% Calm Calm -- 29.95 in1014.2 mb 0.00 in0.0 mm 0.00 in0.0 mm 0.00 in0.0 mm
07:15 AM 82.6°F28.1°C 71.4°F21.9°C 69% Calm Calm -- 29.95 in1014.2 mb 0.00 in0.0 mm 0.00 in0.0 mm 0.00 in0.0 mm
07:20 AM 83.0°F28.3°C 71.8°F22.1°C 69% Calm Calm 1.0 mph1.6 kmh 29.95 in1014.2 mb 0.00 in0.0 mm 0.00 in0.0 mm 0.00 in0.0 mm
07:25 AM 83.4°F28.6°C 71.7°F22.1°C 68% Calm Calm -- 29.95 in1014.2 mb 0.00 in0.0 mm 0.00 in0.0 mm 0.00 in0.0 mm
07:30 AM 83.6°F28.7°C 71.9°F22.2°C 68% Calm Calm 1.0 mph1.6 kmh 29.95 in1014.2 mb 0.00 in0.0 mm 0.00 in0.0 mm 0.00 in0.0 mm
07:35 AM 83.8°F28.8°C 72.1°F22.3°C 68% Calm Calm -- 29.95 in1014.2 mb 0.00 in0.0 mm 0.00 in0.0 mm 0.00 in0.0 mm
07:40 AM 83.9°F28.8°C 71.7°F22.1°C 67% Calm Calm 1.0 mph1.6 kmh 29.95 in1014.2 mb 0.00 in0.0 mm 0.00 in0.0 mm 0.00 in0.0 mm
07:45 AM 84.3°F29.1°C 71.7°F22.1°C 66% 1.0 mph SSW1.6 kmh SSW 5.0 mph8.0 kmh 29.95 in1014.2 mb 0.00 in0.0 mm 0.00 in0.0 mm 0.00 in0.0 mm
07:50 AM 84.6°F29.2°C 72.0°F22.2°C 66% 2.0 mph NE3.2 kmh NE 5.0 mph8.0 kmh 29.96 in1014.6 mb 0.00 in0.0 mm 0.00 in0.0 mm 0.00 in0.0 mm
07:55 AM 84.8°F29.3°C 71.7°F22.1°C 65% 2.0 mph SSW3.2 kmh SSW 8.0 mph12.9 kmh 29.96 in1014.6 mb 0.00 in0.0 mm 0.00 in0.0 mm 0.00 in0.0 mm
08:00 AM 85.2°F29.6°C 72.1°F22.3°C 65% 1.0 mph SSW1.6 kmh SSW 5.0 mph8.0 kmh 29.96 in1014.6 mb 0.00 in0.0 mm 0.00 in0.0 mm 0.00 in0.0 mm
08:05 AM 85.3°F29.6°C 71.7°F22.1°C 64% 2.0 mph WSW3.2 kmh WSW 6.0 mph9.7 kmh 29.96 in1014.6 mb 0.00 in0.0 mm 0.00 in0.0 mm 0.00 in0.0 mm
08:10 AM 85.4°F29.7°C 71.8°F22.1°C 64% 3.0 mph S4.8 kmh S 7.0 mph11.3 kmh 29.96 in1014.6 mb 0.00 in0.0 mm 0.00 in0.0 mm 0.00 in0.0 mm
08:15 AM 85.9°F29.9°C 71.8°F22.1°C 63% 2.0 mph S3.2 kmh S 8.0 mph12.9 kmh 29.96 in1014.6 mb 0.00 in0.0 mm 0.00 in0.0 mm 0.00 in0.0 mm
08:20 AM 86.3°F30.2°C 71.7°F22.1°C 62% 2.0 mph SSE3.2 kmh SSE 6.0 mph9.7 kmh 29.96 in1014.6 mb 0.00 in0.0 mm 0.00 in0.0 mm 0.00 in0.0 mm
08:25 AM 86.7°F30.4°C 72.1°F22.3°C 62% 2.0 mph SSE3.2 kmh SSE 6.0 mph9.7 kmh 29.95 in1014.2 mb 0.00 in0.0 mm 0.00 in0.0 mm 0.00 in0.0 mm
08:30 AM 86.7°F30.4°C 72.1°F22.3°C 62% 2.0 mph WNW3.2 kmh WNW 6.0 mph9.7 kmh 29.95 in1014.2 mb 0.00 in0.0 mm 0.00 in0.0 mm 0.00 in0.0 mm
08:35 AM 87.0°F30.6°C 71.9°F22.2°C 61% 2.0 mph SSE3.2 kmh SSE 7.0 mph11.3 kmh 29.95 in1014.2 mb 0.00 in0.0 mm 0.00 in0.0 mm 0.00 in0.0 mm
08:40 AM 87.3°F30.7°C 71.7°F22.1°C 60% 3.0 mph SSE4.8 kmh SSE 8.0 mph12.9 kmh 29.95 in1014.2 mb 0.00 in0.0 mm 0.00 in0.0 mm 0.00 in0.0 mm
08:45 AM 87.4°F30.8°C 71.8°F22.1°C 60% 2.0 mph SSE3.2 kmh SSE 6.0 mph9.7 kmh 29.95 in1014.2 mb 0.00 in0.0 mm 0.00 in0.0 mm 0.00 in0.0 mm
08:50 AM 87.8°F31.0°C 71.7°F22.1°C 59% 2.0 mph SW3.2 kmh SW 4.0 mph6.4 kmh 29.95 in1014.2 mb 0.00 in0.0 mm 0.00 in0.0 mm 0.00 in0.0 mm
08:55 AM 87.9°F31.1°C 71.7°F22.1°C 59% 2.0 mph NNW3.2 kmh NNW 4.0 mph6.4 kmh 29.94 in1013.9 mb 0.00 in0.0 mm 0.00 in0.0 mm 0.00 in0.0 mm
09:00 AM 88.5°F31.4°C 71.8°F22.1°C 58% 2.0 mph WSW3.2 kmh WSW 7.0 mph11.3 kmh 29.95 in1014.2 mb 0.00 in0.0 mm 0.00 in0.0 mm 0.00 in0.0 mm
09:05 AM 89.1°F31.7°C 71.8°F22.1°C 57% 2.0 mph W3.2 kmh W 4.0 mph6.4 kmh 29.95 in1014.2 mb 0.00 in0.0 mm 0.00 in0.0 mm 0.00 in0.0 mm
09:10 AM 89.2°F31.8°C 71.4°F21.9°C 56% 2.0 mph NW3.2 kmh NW 6.0 mph9.7 kmh 29.94 in1013.9 mb 0.00 in0.0 mm 0.00 in0.0 mm 0.00 in0.0 mm
09:15 AM 89.6°F32.0°C 71.3°F21.8°C 55% 2.0 mph NW3.2 kmh NW 6.0 mph9.7 kmh 29.94 in1013.9 mb 0.00 in0.0 mm 0.00 in0.0 mm 0.00 in0.0 mm
09:20 AM 90.1°F32.3°C 70.6°F21.4°C 53% 2.0 mph SW3.2 kmh SW 9.0 mph14.5 kmh 29.94 in1013.9 mb 0.00 in0.0 mm 0.00 in0.0 mm 0.00 in0.0 mm
09:25 AM 90.4°F32.4°C 71.5°F21.9°C 54% 2.0 mph 3.2 kmh 9.0 mph14.5 kmh 29.94 in1013.9 mb 0.00 in0.0 mm 0.00 in0.0 mm 0.00 in0.0 mm
09:30 AM 90.3°F32.4°C 71.4°F21.9°C 54% 3.0 mph NW4.8 kmh NW 9.0 mph14.5 kmh 29.94 in1013.9 mb 0.00 in0.0 mm 0.00 in0.0 mm 0.00 in0.0 mm
09:35 AM 90.6°F32.6°C 71.1°F21.7°C 53% 3.0 mph NNW4.8 kmh NNW 6.0 mph9.7 kmh 29.94 in1013.9 mb 0.00 in0.0 mm 0.00 in0.0 mm 0.00 in0.0 mm
09:40 AM 90.9°F32.7°C 70.8°F21.6°C 52% 2.0 mph NW3.2 kmh NW 7.0 mph11.3 kmh 29.94 in1013.9 mb 0.00 in0.0 mm 0.00 in0.0 mm 0.00 in0.0 mm
09:45 AM 91.6°F33.1°C 72.0°F22.2°C 53% 2.0 mph S3.2 kmh S 5.0 mph8.0 kmh 29.94 in1013.9 mb 0.00 in0.0 mm 0.00 in0.0 mm 0.00 in0.0 mm
09:50 AM 91.9°F33.3°C 71.1°F21.7°C 51% 2.0 mph NNW3.2 kmh NNW 9.0 mph14.5 kmh 29.94 in1013.9 mb 0.00 in0.0 mm 0.00 in0.0 mm 0.00 in0.0 mm
09:55 AM 92.0°F33.3°C 71.2°F21.8°C 51% 3.0 mph S4.8 kmh S 7.0 mph11.3 kmh 29.94 in1013.9 mb 0.00 in0.0 mm 0.00 in0.0 mm 0.00 in0.0 mm
10:00 AM 92.1°F33.4°C 71.3°F21.8°C 51% 3.0 mph S4.8 kmh S 9.0 mph14.5 kmh 29.94 in1013.9 mb 0.00 in0.0 mm 0.00 in0.0 mm 0.00 in0.0 mm
10:05 AM 92.3°F33.5°C 71.5°F21.9°C 51% 3.0 mph NW4.8 kmh NW 11.0 mph17.7 kmh 29.94 in1013.9 mb 0.00 in0.0 mm 0.00 in0.0 mm 0.00 in0.0 mm
10:10 AM 92.2°F33.4°C 71.4°F21.9°C 51% 3.0 mph S4.8 kmh S 7.0 mph11.3 kmh 29.93 in1013.5 mb 0.00 in0.0 mm 0.00 in0.0 mm 0.00 in0.0 mm
10:15 AM 92.2°F33.4°C 71.4°F21.9°C 51% 3.0 mph NW4.8 kmh NW 9.0 mph14.5 kmh 29.93 in1013.5 mb 0.00 in0.0 mm 0.00 in0.0 mm 0.00 in0.0 mm
10:20 AM 92.4°F33.6°C 71.0°F21.7°C 50% 3.0 mph NNW4.8 kmh NNW 10.0 mph16.1 kmh 29.93 in1013.5 mb 0.00 in0.0 mm 0.00 in0.0 mm 0.00 in0.0 mm
10:25 AM 92.4°F33.6°C 71.0°F21.7°C 50% 3.0 mph SSE4.8 kmh SSE 9.0 mph14.5 kmh 29.93 in1013.5 mb 0.00 in0.0 mm 0.00 in0.0 mm 0.00 in0.0 mm
10:30 AM 93.3°F34.1°C 71.8°F22.1°C 50% 2.0 mph 3.2 kmh 8.0 mph12.9 kmh 29.93 in1013.5 mb 0.00 in0.0 mm 0.00 in0.0 mm 0.00 in0.0 mm
10:35 AM 93.3°F34.1°C 71.8°F22.1°C 50% 3.0 mph NNW4.8 kmh NNW 10.0 mph16.1 kmh 29.93 in1013.5 mb 0.00 in0.0 mm 0.00 in0.0 mm 0.00 in0.0 mm
10:40 AM 93.7°F34.3°C 72.2°F22.3°C 50% 4.0 mph WSW6.4 kmh WSW 11.0 mph17.7 kmh 29.92 in1013.2 mb 0.00 in0.0 mm 0.00 in0.0 mm 0.00 in0.0 mm
10:45 AM 94.4°F34.7°C 72.8°F22.7°C 50% 2.0 mph NNW3.2 kmh NNW 7.0 mph11.3 kmh 29.92 in1013.2 mb 0.00 in0.0 mm 0.00 in0.0 mm 0.00 in0.0 mm
10:50 AM 94.8°F34.9°C 72.0°F22.2°C 48% 2.0 mph WNW3.2 kmh WNW 5.0 mph8.0 kmh 29.92 in1013.2 mb 0.00 in0.0 mm 0.00 in0.0 mm 0.00 in0.0 mm
10:55 AM 94.6°F34.8°C 71.8°F22.1°C 48% 3.0 mph NW4.8 kmh NW 7.0 mph11.3 kmh 29.92 in1013.2 mb 0.00 in0.0 mm 0.00 in0.0 mm 0.00 in0.0 mm
11:00 AM 94.3°F34.6°C 72.2°F22.3°C 49% 3.0 mph NNW4.8 kmh NNW 6.0 mph9.7 kmh 29.92 in1013.2 mb 0.00 in0.0 mm 0.00 in0.0 mm 0.00 in0.0 mm
11:05 AM 94.8°F34.9°C 72.6°F22.6°C 49% 2.0 mph SSW3.2 kmh SSW 7.0 mph11.3 kmh 29.92 in1013.2 mb 0.00 in0.0 mm 0.00 in0.0 mm 0.00 in0.0 mm
11:10 AM 95.1°F35.1°C 72.3°F22.4°C 48% 3.0 mph S4.8 kmh S 8.0 mph12.9 kmh 29.92 in1013.2 mb 0.00 in0.0 mm 0.00 in0.0 mm 0.00 in0.0 mm
11:15 AM 95.6°F35.3°C 72.7°F22.6°C 48% 3.0 mph WNW4.8 kmh WNW 8.0 mph12.9 kmh 29.92 in1013.2 mb 0.00 in0.0 mm 0.00 in0.0 mm 0.00 in0.0 mm
11:20 AM 95.6°F35.3°C 72.1°F22.3°C 47% 3.0 mph SSE4.8 kmh SSE 10.0 mph16.1 kmh 29.92 in1013.2 mb 0.00 in0.0 mm 0.00 in0.0 mm 0.00 in0.0 mm
11:25 AM 95.4°F35.2°C 72.5°F22.5°C 48% 3.0 mph NW4.8 kmh NW 6.0 mph9.7 kmh 29.92 in1013.2 mb 0.00 in0.0 mm 0.00 in0.0 mm 0.00 in0.0 mm
11:30 AM 94.9°F34.9°C 71.5°F21.9°C 47% 3.0 mph NW4.8 kmh NW 11.0 mph17.7 kmh 29.91 in1012.9 mb 0.00 in0.0 mm 0.00 in0.0 mm 0.00 in0.0 mm
11:35 AM 95.5°F35.3°C 72.0°F22.2°C 47% 3.0 mph NNW4.8 kmh NNW 9.0 mph14.5 kmh 29.91 in1012.9 mb 0.00 in0.0 mm 0.00 in0.0 mm 0.00 in0.0 mm
11:40 AM 95.6°F35.3°C 72.1°F22.3°C 47% 3.0 mph NNW4.8 kmh NNW 6.0 mph9.7 kmh 29.91 in1012.9 mb 0.00 in0.0 mm 0.00 in0.0 mm 0.00 in0.0 mm
11:45 AM 96.2°F35.7°C 72.0°F22.2°C 46% 3.0 mph NNW4.8 kmh NNW 10.0 mph16.1 kmh 29.91 in1012.9 mb 0.00 in0.0 mm 0.00 in0.0 mm 0.00 in0.0 mm
11:50 AM 96.1°F35.6°C 72.6°F22.6°C 47% 2.0 mph NNW3.2 kmh NNW 7.0 mph11.3 kmh 29.91 in1012.9 mb 0.00 in0.0 mm 0.00 in0.0 mm 0.00 in0.0 mm
11:55 AM 96.3°F35.7°C 72.7°F22.6°C 47% 3.0 mph NNW4.8 kmh NNW 7.0 mph11.3 kmh 29.91 in1012.9 mb 0.00 in0.0 mm 0.00 in0.0 mm 0.00 in0.0 mm
12:00 PM 96.3°F35.7°C 72.1°F22.3°C 46% 3.0 mph NW4.8 kmh NW 10.0 mph16.1 kmh 29.91 in1012.9 mb 0.00 in0.0 mm 0.00 in0.0 mm 0.00 in0.0 mm
12:05 PM 95.3°F35.2°C 72.5°F22.5°C 48% 2.0 mph 3.2 kmh 6.0 mph9.7 kmh 29.91 in1012.9 mb 0.00 in0.0 mm 0.00 in0.0 mm 0.00 in0.0 mm
12:10 PM 95.6°F35.3°C 72.7°F22.6°C 48% 2.0 mph NW3.2 kmh NW 4.0 mph6.4 kmh 29.90 in1012.5 mb 0.00 in0.0 mm 0.00 in0.0 mm 0.00 in0.0 mm
12:15 PM 96.1°F35.6°C 73.8°F23.2°C 49% 2.0 mph SE3.2 kmh SE 7.0 mph11.3 kmh 29.90 in1012.5 mb 0.00 in0.0 mm 0.00 in0.0 mm 0.00 in0.0 mm
12:20 PM 96.9°F36.1°C 72.6°F22.6°C 46% 2.0 mph NW3.2 kmh NW 5.0 mph8.0 kmh 29.90 in1012.5 mb 0.00 in0.0 mm 0.00 in0.0 mm 0.00 in0.0 mm
12:25 PM 96.4°F35.8°C 72.8°F22.7°C 47% 3.0 mph NW4.8 kmh NW 8.0 mph12.9 kmh 29.90 in1012.5 mb 0.00 in0.0 mm 0.00 in0.0 mm 0.00 in0.0 mm
12:30 PM 97.4°F36.3°C 73.1°F22.8°C 46% 2.0 mph NW3.2 kmh NW 9.0 mph14.5 kmh 29.90 in1012.5 mb 0.00 in0.0 mm 0.00 in0.0 mm 0.00 in0.0 mm
12:35 PM 97.4°F36.3°C 73.7°F23.2°C 47% 2.0 mph NW3.2 kmh NW 8.0 mph12.9 kmh 29.89 in1012.2 mb 0.00 in0.0 mm 0.00 in0.0 mm 0.00 in0.0 mm
12:40 PM 97.4°F36.3°C 72.4°F22.4°C 45% 2.0 mph NW3.2 kmh NW 5.0 mph8.0 kmh 29.89 in1012.2 mb 0.00 in0.0 mm 0.00 in0.0 mm 0.00 in0.0 mm
12:45 PM 97.7°F36.5°C 73.4°F23.0°C 46% 2.0 mph NW3.2 kmh NW 5.0 mph8.0 kmh 29.89 in1012.2 mb 0.00 in0.0 mm 0.00 in0.0 mm 0.00 in0.0 mm
12:50 PM 97.3°F36.3°C 73.0°F22.8°C 46% 3.0 mph NW4.8 kmh NW 6.0 mph9.7 kmh 29.89 in1012.2 mb 0.00 in0.0 mm 0.00 in0.0 mm 0.00 in0.0 mm
12:55 PM 96.9°F36.1°C 73.3°F22.9°C 47% 5.0 mph NW8.0 kmh NW 9.0 mph14.5 kmh 29.89 in1012.2 mb 0.00 in0.0 mm 0.00 in0.0 mm 0.00 in0.0 mm
01:00 PM 96.9°F36.1°C 73.3°F22.9°C 47% 4.0 mph NW6.4 kmh NW 9.0 mph14.5 kmh 29.88 in1011.9 mb 0.00 in0.0 mm 0.00 in0.0 mm 0.00 in0.0 mm
01:05 PM 98.2°F36.8°C 72.5°F22.5°C 44% 2.0 mph NW3.2 kmh NW 6.0 mph9.7 kmh 29.88 in1011.9 mb 0.00 in0.0 mm 0.00 in0.0 mm 0.00 in0.0 mm
01:10 PM 97.6°F36.4°C 73.9°F23.3°C 47% 3.0 mph NW4.8 kmh NW 9.0 mph14.5 kmh 29.88 in1011.9 mb 0.00 in0.0 mm 0.00 in0.0 mm 0.00 in0.0 mm
01:15 PM 98.5°F36.9°C 74.1°F23.4°C 46% 1.0 mph NNW1.6 kmh NNW 4.0 mph6.4 kmh 29.88 in1011.9 mb 0.00 in0.0 mm 0.00 in0.0 mm 0.00 in0.0 mm
01:20 PM 99.5°F37.5°C 73.7°F23.2°C 44% 1.0 mph S1.6 kmh S 4.0 mph6.4 kmh 29.88 in1011.9 mb 0.00 in0.0 mm 0.00 in0.0 mm 0.00 in0.0 mm
01:25 PM 98.9°F37.2°C 73.1°F22.8°C 44% 3.0 mph NW4.8 kmh NW 8.0 mph12.9 kmh 29.87 in1011.5 mb 0.00 in0.0 mm 0.00 in0.0 mm 0.00 in0.0 mm
01:30 PM 98.6°F37.0°C 73.5°F23.1°C 45% 3.0 mph NNW4.8 kmh NNW 7.0 mph11.3 kmh 29.87 in1011.5 mb 0.00 in0.0 mm 0.00 in0.0 mm 0.00 in0.0 mm
01:35 PM 98.0°F36.7°C 74.3°F23.5°C 47% 2.0 mph NW3.2 kmh NW 4.0 mph6.4 kmh 29.87 in1011.5 mb 0.00 in0.0 mm 0.00 in0.0 mm 0.00 in0.0 mm
01:40 PM 98.1°F36.7°C 73.1°F22.8°C 45% 1.0 mph E1.6 kmh E 3.0 mph4.8 kmh 29.86 in1011.2 mb 0.00 in0.0 mm 0.00 in0.0 mm 0.00 in0.0 mm
01:45 PM 98.9°F37.2°C 73.8°F23.2°C 45% 3.0 mph NW4.8 kmh NW 8.0 mph12.9 kmh 29.86 in1011.2 mb 0.00 in0.0 mm 0.00 in0.0 mm 0.00 in0.0 mm
01:50 PM 98.0°F36.7°C 72.3°F22.4°C 44% 3.0 mph NNW4.8 kmh NNW 7.0 mph11.3 kmh 29.86 in1011.2 mb 0.00 in0.0 mm 0.00 in0.0 mm 0.00 in0.0 mm
01:55 PM 98.2°F36.8°C 73.2°F22.9°C 45% 4.0 mph NW6.4 kmh NW 8.0 mph12.9 kmh 29.86 in1011.2 mb 0.00 in0.0 mm 0.00 in0.0 mm 0.00 in0.0 mm
02:00 PM 99.2°F37.3°C 72.7°F22.6°C 43% 2.0 mph WNW3.2 kmh WNW 9.0 mph14.5 kmh 29.85 in1010.8 mb 0.00 in0.0 mm 0.00 in0.0 mm 0.00 in0.0 mm
02:05 PM 99.2°F37.3°C 72.7°F22.6°C 43% 2.0 mph NW3.2 kmh NW 5.0 mph8.0 kmh 29.85 in1010.8 mb 0.00 in0.0 mm 0.00 in0.0 mm 0.00 in0.0 mm
02:10 PM 99.0°F37.2°C 75.2°F24.0°C 47% 2.0 mph WNW3.2 kmh WNW 8.0 mph12.9 kmh 29.85 in1010.8 mb 0.00 in0.0 mm 0.00 in0.0 mm 0.00 in0.0 mm
02:15 PM 100.0°F37.8°C 75.4°F24.1°C 46% Calm Calm 2.0 mph3.2 kmh 29.84 in1010.5 mb 0.00 in0.0 mm 0.00 in0.0 mm 0.00 in0.0 mm
02:20 PM 100.1°F37.8°C 72.8°F22.7°C 42% 1.0 mph WNW1.6 kmh WNW 5.0 mph8.0 kmh 29.84 in1010.5 mb 0.00 in0.0 mm 0.00 in0.0 mm 0.00 in0.0 mm
02:25 PM 99.4°F37.4°C 72.9°F22.7°C 43% 1.0 mph NW1.6 kmh NW 5.0 mph8.0 kmh 29.84 in1010.5 mb 0.00 in0.0 mm 0.00 in0.0 mm 0.00 in0.0 mm
02:30 PM 100.1°F37.8°C 74.9°F23.8°C 45% 2.0 mph NNW3.2 kmh NNW 4.0 mph6.4 kmh 29.84 in1010.5 mb 0.00 in0.0 mm 0.00 in0.0 mm 0.00 in0.0 mm
02:35 PM 99.4°F37.4°C 72.2°F22.3°C 42% 1.0 mph NNW1.6 kmh NNW 4.0 mph6.4 kmh 29.84 in1010.5 mb 0.00 in0.0 mm 0.00 in0.0 mm 0.00 in0.0 mm
02:40 PM 98.9°F37.2°C 73.1°F22.8°C 44% 2.0 mph NNW3.2 kmh NNW 4.0 mph6.4 kmh 29.84 in1010.5 mb 0.00 in0.0 mm 0.00 in0.0 mm 0.00 in0.0 mm
02:45 PM 99.3°F37.4°C 72.8°F22.7°C 43% Calm Calm 2.0 mph3.2 kmh 29.84 in1010.5 mb 0.00 in0.0 mm 0.00 in0.0 mm 0.00 in0.0 mm
02:50 PM 98.3°F36.8°C 72.6°F22.6°C 44% 1.0 mph NW1.6 kmh NW 2.0 mph3.2 kmh 29.83 in1010.2 mb 0.00 in0.0 mm 0.00 in0.0 mm 0.00 in0.0 mm
02:55 PM 98.7°F37.1°C 72.3°F22.4°C 43% Calm Calm 2.0 mph3.2 kmh 29.83 in1010.2 mb 0.00 in0.0 mm 0.00 in0.0 mm 0.00 in0.0 mm
03:00 PM 100.1°F37.8°C 74.2°F23.4°C 44% Calm Calm -- 29.82 in1009.8 mb 0.00 in0.0 mm 0.00 in0.0 mm 0.00 in0.0 mm
03:05 PM 100.4°F38.0°C 73.8°F23.2°C 43% Calm Calm -- 29.82 in1009.8 mb 0.00 in0.0 mm 0.00 in0.0 mm 0.00 in0.0 mm
03:10 PM 101.2°F38.4°C 73.1°F22.8°C 41% Calm Calm -- 29.82 in1009.8 mb 0.00 in0.0 mm 0.00 in0.0 mm 0.00 in0.0 mm
03:15 PM 101.6°F38.7°C 73.4°F23.0°C 41% Calm Calm -- 29.82 in1009.8 mb 0.00 in0.0 mm 0.00 in0.0 mm 0.00 in0.0 mm
03:20 PM 100.6°F38.1°C 71.8°F22.1°C 40% 2.0 mph WNW3.2 kmh WNW 6.0 mph9.7 kmh 29.82 in1009.8 mb 0.00 in0.0 mm 0.00 in0.0 mm 0.00 in0.0 mm
03:25 PM 99.5°F37.5°C 73.0°F22.8°C 43% 2.0 mph NW3.2 kmh NW 5.0 mph8.0 kmh 29.82 in1009.8 mb 0.00 in0.0 mm 0.00 in0.0 mm 0.00 in0.0 mm
03:30 PM 99.0°F37.2°C 72.5°F22.5°C 43% 1.0 mph 1.6 kmh 3.0 mph4.8 kmh 29.81 in1009.5 mb 0.00 in0.0 mm 0.00 in0.0 mm 0.00 in0.0 mm
03:35 PM 100.1°F37.8°C 72.1°F22.3°C 41% 3.0 mph SE4.8 kmh SE 10.0 mph16.1 kmh 29.80 in1009.1 mb 0.00 in0.0 mm 0.00 in0.0 mm 0.00 in0.0 mm
03:40 PM 101.0°F38.3°C 72.9°F22.7°C 41% 3.0 mph SSE4.8 kmh SSE 6.0 mph9.7 kmh 29.80 in1009.1 mb 0.00 in0.0 mm 0.00 in0.0 mm 0.00 in0.0 mm
03:45 PM 100.9°F38.3°C 72.1°F22.3°C 40% 1.0 mph W1.6 kmh W 5.0 mph8.0 kmh 29.80 in1009.1 mb 0.00 in0.0 mm 0.00 in0.0 mm 0.00 in0.0 mm
03:50 PM 100.1°F37.8°C 72.1°F22.3°C 41% 1.0 mph S1.6 kmh S 4.0 mph6.4 kmh 29.79 in1008.8 mb 0.00 in0.0 mm 0.00 in0.0 mm 0.00 in0.0 mm
03:55 PM 100.0°F37.8°C 72.7°F22.6°C 42% 1.0 mph S1.6 kmh S 3.0 mph4.8 kmh 29.79 in1008.8 mb 0.00 in0.0 mm 0.00 in0.0 mm 0.00 in0.0 mm
04:00 PM 99.3°F37.4°C 72.1°F22.3°C 42% 1.0 mph SSE1.6 kmh SSE 4.0 mph6.4 kmh 29.80 in1009.1 mb 0.00 in0.0 mm 0.00 in0.0 mm 0.00 in0.0 mm
04:05 PM 99.2°F37.3°C 72.0°F22.2°C 42% 1.0 mph S1.6 kmh S 3.0 mph4.8 kmh 29.80 in1009.1 mb 0.00 in0.0 mm 0.00 in0.0 mm 0.00 in0.0 mm
04:10 PM 99.3°F37.4°C 72.1°F22.3°C 42% 1.0 mph WSW1.6 kmh WSW 3.0 mph4.8 kmh 29.79 in1008.8 mb 0.00 in0.0 mm 0.00 in0.0 mm 0.00 in0.0 mm
04:15 PM 99.3°F37.4°C 72.1°F22.3°C 42% 1.0 mph WSW1.6 kmh WSW 4.0 mph6.4 kmh 29.79 in1008.8 mb 0.00 in0.0 mm 0.00 in0.0 mm 0.00 in0.0 mm
04:20 PM 99.4°F37.4°C 72.2°F22.3°C 42% Calm Calm 1.0 mph1.6 kmh 29.79 in1008.8 mb 0.00 in0.0 mm 0.00 in0.0 mm 0.00 in0.0 mm
04:25 PM 98.8°F37.1°C 71.6°F22.0°C 42% Calm Calm -- 29.79 in1008.8 mb 0.00 in0.0 mm 0.00 in0.0 mm 0.00 in0.0 mm
04:30 PM 98.6°F37.0°C 72.2°F22.3°C 43% Calm Calm -- 29.79 in1008.8 mb 0.00 in0.0 mm 0.00 in0.0 mm 0.00 in0.0 mm
04:35 PM 98.7°F37.1°C 72.3°F22.4°C 43% Calm Calm -- 29.79 in1008.8 mb 0.00 in0.0 mm 0.00 in0.0 mm 0.00 in0.0 mm
04:40 PM 98.2°F36.8°C 71.8°F22.1°C 43% Calm Calm -- 29.79 in1008.8 mb 0.00 in0.0 mm 0.00 in0.0 mm 0.00 in0.0 mm
04:45 PM 98.3°F36.8°C 71.9°F22.2°C 43% Calm Calm -- 29.79 in1008.8 mb 0.00 in0.0 mm 0.00 in0.0 mm 0.00 in0.0 mm
04:50 PM 98.3°F36.8°C 72.6°F22.6°C 44% Calm Calm -- 29.79 in1008.8 mb 0.00 in0.0 mm 0.00 in0.0 mm 0.00 in0.0 mm
04:55 PM 98.4°F36.9°C 72.7°F22.6°C 44% Calm Calm -- 29.79 in1008.8 mb 0.00 in0.0 mm 0.00 in0.0 mm 0.00 in0.0 mm
05:00 PM 96.1°F35.6°C 71.9°F22.2°C 46% 3.0 mph SE4.8 kmh SE 8.0 mph12.9 kmh 29.79 in1008.8 mb 0.00 in0.0 mm 0.00 in0.0 mm 0.00 in0.0 mm
05:05 PM 95.9°F35.5°C 71.7°F22.1°C 46% 3.0 mph SE4.8 kmh SE 8.0 mph12.9 kmh 29.79 in1008.8 mb 0.00 in0.0 mm 0.00 in0.0 mm 0.00 in0.0 mm
05:10 PM 95.9°F35.5°C 71.1°F21.7°C 45% 2.0 mph SSE3.2 kmh SSE 7.0 mph11.3 kmh 29.79 in1008.8 mb 0.00 in0.0 mm 0.00 in0.0 mm 0.00 in0.0 mm
05:15 PM 95.3°F35.2°C 71.8°F22.1°C 47% 1.0 mph SE1.6 kmh SE 3.0 mph4.8 kmh 29.79 in1008.8 mb 0.00 in0.0 mm 0.00 in0.0 mm 0.00 in0.0 mm
05:20 PM 94.6°F34.8°C 71.8°F22.1°C 48% 2.0 mph SSE3.2 kmh SSE 7.0 mph11.3 kmh 29.79 in1008.8 mb 0.00 in0.0 mm 0.00 in0.0 mm 0.00 in0.0 mm
05:25 PM 94.0°F34.4°C 71.9°F22.2°C 49% 3.0 mph SSE4.8 kmh SSE 9.0 mph14.5 kmh 29.79 in1008.8 mb 0.00 in0.0 mm 0.00 in0.0 mm 0.00 in0.0 mm
05:30 PM 92.3°F33.5°C 70.9°F21.6°C 50% 4.0 mph S6.4 kmh S 12.0 mph19.3 kmh 29.79 in1008.8 mb 0.00 in0.0 mm 0.00 in0.0 mm 0.00 in0.0 mm
05:35 PM 90.7°F32.6°C 71.7°F22.1°C 54% 5.0 mph S8.0 kmh S 9.0 mph14.5 kmh 29.80 in1009.1 mb 0.00 in0.0 mm 0.00 in0.0 mm 0.00 in0.0 mm
05:40 PM 89.6°F32.0°C 71.3°F21.8°C 55% 4.0 mph SSW6.4 kmh SSW 11.0 mph17.7 kmh 29.82 in1009.8 mb 0.00 in0.0 mm 0.00 in0.0 mm 0.00 in0.0 mm
05:45 PM 87.3°F30.7°C 70.2°F21.2°C 57% 4.0 mph S6.4 kmh S 15.0 mph24.1 kmh 29.82 in1009.8 mb 0.00 in0.0 mm 0.00 in0.0 mm 0.00 in0.0 mm
05:50 PM 83.7°F28.7°C 69.7°F20.9°C 63% 4.0 mph SSW6.4 kmh SSW 11.0 mph17.7 kmh 29.81 in1009.5 mb 0.00 in0.0 mm 0.00 in0.0 mm 0.00 in0.0 mm
05:55 PM 83.5°F28.6°C 70.0°F21.1°C 64% 2.0 mph SSW3.2 kmh SSW 8.0 mph12.9 kmh 29.80 in1009.1 mb 0.00 in0.0 mm 0.00 in0.0 mm 0.00 in0.0 mm
06:00 PM 84.1°F28.9°C 68.7°F20.4°C 60% 3.0 mph SSE4.8 kmh SSE 9.0 mph14.5 kmh 29.80 in1009.1 mb 0.00 in0.0 mm 0.00 in0.0 mm 0.00 in0.0 mm
06:05 PM 85.4°F29.7°C 67.4°F19.7°C 55% 3.0 mph S4.8 kmh S 8.0 mph12.9 kmh 29.81 in1009.5 mb 0.00 in0.0 mm 0.00 in0.0 mm 0.00 in0.0 mm
06:10 PM 85.5°F29.7°C 69.0°F20.6°C 58% 1.0 mph SE1.6 kmh SE 3.0 mph4.8 kmh 29.82 in1009.8 mb 0.00 in0.0 mm 0.00 in0.0 mm 0.00 in0.0 mm
06:15 PM 84.5°F29.2°C 68.6°F20.3°C 59% 2.0 mph 3.2 kmh 4.0 mph6.4 kmh 29.82 in1009.8 mb 0.00 in0.0 mm 0.00 in0.0 mm 0.00 in0.0 mm
06:20 PM 84.9°F29.4°C 66.9°F19.4°C 55% 1.0 mph 1.6 kmh 6.0 mph9.7 kmh 29.84 in1010.5 mb 0.00 in0.0 mm 0.00 in0.0 mm 0.00 in0.0 mm
06:25 PM 84.3°F29.1°C 71.7°F22.1°C 66% 5.0 mph NW8.0 kmh NW 11.0 mph17.7 kmh 29.85 in1010.8 mb 0.00 in0.0 mm 0.00 in0.0 mm 0.00 in0.0 mm
06:30 PM 80.5°F26.9°C 71.8°F22.1°C 75% 7.0 mph NNW11.3 kmh NNW 15.0 mph24.1 kmh 29.87 in1011.5 mb 0.05 in1.3 mm 0.60 in15.2 mm 0.05 in1.3 mm
06:35 PM 78.3°F25.7°C 72.0°F22.2°C 81% 6.0 mph NW9.7 kmh NW 12.0 mph19.3 kmh 29.88 in1011.9 mb 0.10 in2.5 mm 0.60 in15.2 mm 0.10 in2.5 mm
06:40 PM 77.6°F25.3°C 72.0°F22.2°C 83% 5.0 mph NW8.0 kmh NW 10.0 mph16.1 kmh 29.88 in1011.9 mb 0.11 in2.8 mm 0.12 in3.0 mm 0.11 in2.8 mm
06:45 PM 76.8°F24.9°C 71.6°F22.0°C 84% 6.0 mph NW9.7 kmh NW 15.0 mph24.1 kmh 29.87 in1011.5 mb 0.13 in3.3 mm 0.24 in6.1 mm 0.13 in3.3 mm
06:50 PM 76.0°F24.4°C 71.5°F21.9°C 86% 7.0 mph NW11.3 kmh NW 17.0 mph27.4 kmh 29.88 in1011.9 mb 0.16 in4.1 mm 0.36 in9.1 mm 0.16 in4.1 mm
06:55 PM 74.4°F23.6°C 68.9°F20.5°C 83% 8.0 mph NNW12.9 kmh NNW 21.0 mph33.8 kmh 29.88 in1011.9 mb 0.20 in5.1 mm 0.48 in12.2 mm 0.20 in5.1 mm
07:00 PM 73.5°F23.1°C 68.0°F20.0°C 83% 8.0 mph NNW12.9 kmh NNW 18.0 mph29.0 kmh 29.91 in1012.9 mb 0.29 in7.4 mm 0.10 in2.5 mm 0.29 in7.4 mm
07:05 PM 72.5°F22.5°C 67.0°F19.4°C 83% 5.0 mph NNW8.0 kmh NNW 11.0 mph17.7 kmh 29.91 in1012.9 mb 0.38 in9.7 mm 1.08 in27.4 mm 0.38 in9.7 mm
07:10 PM 72.1°F22.3°C 67.0°F19.4°C 84% 2.0 mph NW3.2 kmh NW 8.0 mph12.9 kmh 29.90 in1012.5 mb 0.42 in10.7 mm 0.48 in12.2 mm 0.42 in10.7 mm
07:15 PM 71.7°F22.1°C 67.3°F19.6°C 86% Calm Calm 3.0 mph4.8 kmh 29.89 in1012.2 mb 0.45 in11.4 mm 0.36 in9.1 mm 0.45 in11.4 mm
07:20 PM 71.4°F21.9°C 67.3°F19.6°C 87% 1.0 mph NNW1.6 kmh NNW 5.0 mph8.0 kmh 29.87 in1011.5 mb 0.48 in12.2 mm 0.36 in9.1 mm 0.48 in12.2 mm
07:25 PM 71.5°F21.9°C 67.8°F19.9°C 88% Calm Calm -- 29.87 in1011.5 mb 0.51 in13.0 mm 0.36 in9.1 mm 0.51 in13.0 mm
07:30 PM 71.7°F22.1°C 68.3°F20.2°C 89% Calm Calm -- 29.87 in1011.5 mb 0.49 in12.4 mm 0.00 in0.0 mm 0.54 in13.7 mm
07:35 PM 71.7°F22.1°C 68.3°F20.2°C 89% Calm Calm -- 29.86 in1011.2 mb 0.45 in11.4 mm 0.00 in0.0 mm 0.55 in14.0 mm
07:40 PM 71.9°F22.2°C 68.8°F20.4°C 90% Calm Calm -- 29.86 in1011.2 mb 0.45 in11.4 mm 0.00 in0.0 mm 0.56 in14.2 mm
07:45 PM 72.1°F22.3°C 69.3°F20.7°C 91% Calm Calm -- 29.84 in1010.5 mb 0.44 in11.2 mm 0.00 in0.0 mm 0.57 in14.5 mm
07:50 PM 72.5°F22.5°C 70.0°F21.1°C 92% Calm Calm -- 29.83 in1010.2 mb 0.41 in10.4 mm 0.00 in0.0 mm 0.57 in14.5 mm
07:55 PM 72.4°F22.4°C 69.6°F20.9°C 91% Calm Calm -- 29.83 in1010.2 mb 0.37 in9.4 mm 0.00 in0.0 mm 0.57 in14.5 mm
08:00 PM 72.5°F22.5°C 69.7°F20.9°C 91% Calm Calm -- 29.82 in1009.8 mb 0.28 in7.1 mm 0.00 in0.0 mm 0.57 in14.5 mm
08:05 PM 72.8°F22.7°C 70.0°F21.1°C 91% Calm Calm -- 29.82 in1009.8 mb 0.19 in4.8 mm 0.00 in0.0 mm 0.57 in14.5 mm
08:10 PM 73.1°F22.8°C 70.3°F21.3°C 91% Calm Calm -- 29.82 in1009.8 mb 0.15 in3.8 mm 0.00 in0.0 mm 0.57 in14.5 mm
08:15 PM 73.9°F23.3°C 71.1°F21.7°C 91% Calm Calm -- 29.82 in1009.8 mb 0.12 in3.0 mm 0.00 in0.0 mm 0.57 in14.5 mm
08:20 PM 74.2°F23.4°C 71.4°F21.9°C 91% Calm Calm -- 29.82 in1009.8 mb 0.10 in2.5 mm 0.00 in0.0 mm 0.58 in14.7 mm
08:25 PM 74.2°F23.4°C 71.1°F21.7°C 90% Calm Calm -- 29.82 in1009.8 mb 0.07 in1.8 mm 0.00 in0.0 mm 0.58 in14.7 mm
08:30 PM 74.5°F23.6°C 71.0°F21.7°C 89% Calm Calm -- 29.83 in1010.2 mb 0.04 in1.0 mm 0.00 in0.0 mm 0.58 in14.7 mm
08:35 PM 74.7°F23.7°C 71.2°F21.8°C 89% Calm Calm -- 29.84 in1010.5 mb 0.03 in0.8 mm 0.00 in0.0 mm 0.58 in14.7 mm
08:40 PM 74.9°F23.8°C 71.8°F22.1°C 90% Calm Calm -- 29.84 in1010.5 mb 0.02 in0.5 mm 0.00 in0.0 mm 0.58 in14.7 mm
08:45 PM 75.4°F24.1°C 72.3°F22.4°C 90% Calm Calm -- 29.84 in1010.5 mb 0.01 in0.3 mm 0.00 in0.0 mm 0.58 in14.7 mm
08:50 PM 75.7°F24.3°C 72.6°F22.6°C 90% Calm Calm -- 29.85 in1010.8 mb 0.01 in0.3 mm 0.00 in0.0 mm 0.58 in14.7 mm
08:55 PM 75.6°F24.2°C 72.5°F22.5°C 90% Calm Calm -- 29.85 in1010.8 mb 0.01 in0.3 mm 0.00 in0.0 mm 0.58 in14.7 mm
09:00 PM 75.3°F24.1°C 71.8°F22.1°C 89% Calm Calm 2.0 mph3.2 kmh 29.86 in1011.2 mb 0.01 in0.3 mm 0.00 in0.0 mm 0.58 in14.7 mm
09:05 PM 74.7°F23.7°C 70.9°F21.6°C 88% Calm Calm 2.0 mph3.2 kmh 29.86 in1011.2 mb 0.01 in0.3 mm 0.00 in0.0 mm 0.58 in14.7 mm
09:10 PM 74.4°F23.6°C 70.6°F21.4°C 88% Calm Calm -- 29.86 in1011.2 mb 0.01 in0.3 mm 0.00 in0.0 mm 0.58 in14.7 mm
09:15 PM 74.3°F23.5°C 70.8°F21.6°C 89% Calm Calm -- 29.86 in1011.2 mb 0.01 in0.3 mm 0.00 in0.0 mm 0.58 in14.7 mm
09:20 PM 74.3°F23.5°C 70.8°F21.6°C 89% Calm Calm -- 29.86 in1011.2 mb 0.00 in0.0 mm 0.00 in0.0 mm 0.58 in14.7 mm
09:25 PM 74.3°F23.5°C 70.8°F21.6°C 89% Calm Calm -- 29.86 in1011.2 mb 0.00 in0.0 mm 0.00 in0.0 mm 0.58 in14.7 mm
09:30 PM 74.3°F23.5°C 70.8°F21.6°C 89% Calm Calm -- 29.86 in1011.2 mb 0.00 in0.0 mm 0.00 in0.0 mm 0.58 in14.7 mm
09:35 PM 74.4°F23.6°C 70.9°F21.6°C 89% Calm Calm -- 29.86 in1011.2 mb 0.00 in0.0 mm 0.00 in0.0 mm 0.58 in14.7 mm
09:40 PM 74.5°F23.6°C 71.0°F21.7°C 89% Calm Calm -- 29.86 in1011.2 mb 0.00 in0.0 mm 0.00 in0.0 mm 0.58 in14.7 mm
09:45 PM 74.7°F23.7°C 71.2°F21.8°C 89% Calm Calm -- 29.86 in1011.2 mb 0.00 in0.0 mm 0.00 in0.0 mm 0.58 in14.7 mm
09:50 PM 74.8°F23.8°C 71.3°F21.8°C 89% Calm Calm -- 29.85 in1010.8 mb 0.00 in0.0 mm 0.00 in0.0 mm 0.58 in14.7 mm
09:55 PM 74.8°F23.8°C 71.0°F21.7°C 88% Calm Calm -- 29.85 in1010.8 mb 0.00 in0.0 mm 0.00 in0.0 mm 0.58 in14.7 mm
10:00 PM 74.9°F23.8°C 71.1°F21.7°C 88% Calm Calm -- 29.85 in1010.8 mb 0.00 in0.0 mm 0.00 in0.0 mm 0.58 in14.7 mm
10:05 PM 75.0°F23.9°C 71.2°F21.8°C 88% Calm Calm -- 29.85 in1010.8 mb 0.00 in0.0 mm 0.00 in0.0 mm 0.58 in14.7 mm
10:10 PM 75.1°F23.9°C 71.3°F21.8°C 88% Calm Calm -- 29.84 in1010.5 mb 0.00 in0.0 mm 0.00 in0.0 mm 0.58 in14.7 mm
10:15 PM 74.9°F23.8°C 71.1°F21.7°C 88% Calm Calm -- 29.84 in1010.5 mb 0.00 in0.0 mm 0.00 in0.0 mm 0.58 in14.7 mm
10:20 PM 75.0°F23.9°C 71.2°F21.8°C 88% Calm Calm -- 29.84 in1010.5 mb 0.00 in0.0 mm 0.00 in0.0 mm 0.58 in14.7 mm
10:25 PM 75.1°F23.9°C 71.3°F21.8°C 88% Calm Calm -- 29.84 in1010.5 mb 0.00 in0.0 mm 0.00 in0.0 mm 0.58 in14.7 mm
10:30 PM 75.1°F23.9°C 71.6°F22.0°C 89% Calm Calm -- 29.84 in1010.5 mb 0.00 in0.0 mm 0.00 in0.0 mm 0.58 in14.7 mm
10:35 PM 74.9°F23.8°C 71.8°F22.1°C 90% Calm Calm -- 29.84 in1010.5 mb 0.00 in0.0 mm 0.00 in0.0 mm 0.58 in14.7 mm
10:40 PM 74.9°F23.8°C 71.8°F22.1°C 90% Calm Calm -- 29.83 in1010.2 mb 0.00 in0.0 mm 0.00 in0.0 mm 0.58 in14.7 mm
10:45 PM 75.0°F23.9°C 71.9°F22.2°C 90% Calm Calm -- 29.83 in1010.2 mb 0.00 in0.0 mm 0.00 in0.0 mm 0.58 in14.7 mm
10:50 PM 75.0°F23.9°C 71.9°F22.2°C 90% Calm Calm -- 29.83 in1010.2 mb 0.00 in0.0 mm 0.00 in0.0 mm 0.58 in14.7 mm
10:55 PM 75.2°F24.0°C 71.7°F22.1°C 89% Calm Calm -- 29.83 in1010.2 mb 0.00 in0.0 mm 0.00 in0.0 mm 0.58 in14.7 mm
11:00 PM 75.3°F24.1°C 71.8°F22.1°C 89% Calm Calm -- 29.83 in1010.2 mb 0.00 in0.0 mm 0.00 in0.0 mm 0.51 in13.0 mm
11:05 PM 75.4°F24.1°C 71.9°F22.2°C 89% Calm Calm -- 29.83 in1010.2 mb 0.00 in0.0 mm 0.00 in0.0 mm 0.51 in13.0 mm
11:10 PM 75.4°F24.1°C 71.9°F22.2°C 89% Calm Calm -- 29.82 in1009.8 mb 0.00 in0.0 mm 0.00 in0.0 mm 0.51 in13.0 mm
11:15 PM 75.5°F24.2°C 72.0°F22.2°C 89% Calm Calm -- 29.82 in1009.8 mb 0.00 in0.0 mm 0.00 in0.0 mm 0.51 in13.0 mm
11:20 PM 75.7°F24.3°C 72.2°F22.3°C 89% Calm Calm -- 29.82 in1009.8 mb 0.00 in0.0 mm 0.00 in0.0 mm 0.51 in13.0 mm
11:25 PM 75.7°F24.3°C 72.2°F22.3°C 89% Calm Calm -- 29.82 in1009.8 mb 0.00 in0.0 mm 0.00 in0.0 mm 0.51 in13.0 mm
11:30 PM 75.8°F24.3°C 72.3°F22.4°C 89% Calm Calm -- 29.82 in1009.8 mb 0.00 in0.0 mm 0.00 in0.0 mm 0.51 in13.0 mm
11:35 PM 75.8°F24.3°C 72.3°F22.4°C 89% Calm Calm -- 29.81 in1009.5 mb 0.00 in0.0 mm 0.00 in0.0 mm 0.51 in13.0 mm
11:40 PM 75.8°F24.3°C 72.3°F22.4°C 89% Calm Calm -- 29.81 in1009.5 mb 0.00 in0.0 mm 0.00 in0.0 mm 0.51 in13.0 mm
11:45 PM 75.8°F24.3°C 72.3°F22.4°C 89% Calm Calm -- 29.81 in1009.5 mb 0.00 in0.0 mm 0.00 in0.0 mm 0.51 in13.0 mm
11:50 PM 75.9°F24.4°C 72.1°F22.3°C 88% Calm Calm -- 29.81 in1009.5 mb 0.00 in0.0 mm 0.00 in0.0 mm 0.51 in13.0 mm
11:55 PM 76.0°F24.4°C 72.5°F22.5°C 89% Calm Calm -- 29.80 in1009.1 mb 0.00 in0.0 mm 0.00 in0.0 mm 0.51 in13.0 mm